createdAt,value
2017-07-20T00:00:14.911Z,938.25
2017-07-20T00:00:43.027Z,938.22
2017-07-20T00:01:11.237Z,938.21
2017-07-20T00:01:39.551Z,938.25
2017-07-20T00:02:07.528Z,938.24
2017-07-20T00:02:35.629Z,938.24
2017-07-20T00:03:03.957Z,938.24
2017-07-20T00:03:31.986Z,938.25
2017-07-20T00:04:00.218Z,938.24
2017-07-20T00:04:28.418Z,938.23
2017-07-20T00:04:56.615Z,938.23
2017-07-20T00:05:24.848Z,938.17
2017-07-20T00:05:52.963Z,938.22
2017-07-20T00:06:21.137Z,938.2
2017-07-20T00:06:49.329Z,938.17
2017-07-20T00:07:17.487Z,938.18
2017-07-20T00:07:45.653Z,938.19
2017-07-20T00:08:13.772Z,938.16
2017-07-20T00:08:41.729Z,938.18
2017-07-20T00:09:09.849Z,938.14
2017-07-20T00:09:37.995Z,938.17
2017-07-20T00:10:06.174Z,938.19
2017-07-20T00:10:34.398Z,938.15
2017-07-20T00:11:02.624Z,938.16
2017-07-20T00:11:30.838Z,938.17
2017-07-20T00:11:59.178Z,938.17
2017-07-20T00:12:27.458Z,938.16
2017-07-20T00:12:55.673Z,938.16
2017-07-20T00:13:23.907Z,938.14
2017-07-20T00:13:52.160Z,938.14
2017-07-20T00:14:20.312Z,938.18
2017-07-20T00:14:48.450Z,938.14
2017-07-20T00:15:16.666Z,938.15
2017-07-20T00:15:44.921Z,938.16
2017-07-20T00:16:13.085Z,938.11
2017-07-20T00:16:41.350Z,938.11
2017-07-20T00:17:09.590Z,938.08
2017-07-20T00:17:37.849Z,938.1
2017-07-20T00:18:06.040Z,938.09
2017-07-20T00:18:34.100Z,938.13
2017-07-20T00:19:02.211Z,938.17
2017-07-20T00:19:30.364Z,938.15
2017-07-20T00:19:58.457Z,938.17
2017-07-20T00:20:26.705Z,938.15
2017-07-20T00:20:54.884Z,938.16
2017-07-20T00:21:23.030Z,938.14
2017-07-20T00:21:51.323Z,938.13
2017-07-20T00:22:19.597Z,938.18
2017-07-20T00:22:47.732Z,938.17
2017-07-20T00:23:15.992Z,938.14
2017-07-20T00:23:44.242Z,938.12
2017-07-20T00:24:12.370Z,938.18
2017-07-20T00:24:40.606Z,938.17
2017-07-20T00:25:08.664Z,938.16
2017-07-20T00:25:36.767Z,938.17
2017-07-20T00:26:04.993Z,938.12
2017-07-20T00:26:33.150Z,938.14
2017-07-20T00:27:01.327Z,938.14
2017-07-20T00:27:29.515Z,938.18
2017-07-20T00:27:57.739Z,938.14
2017-07-20T00:28:25.781Z,938.15
2017-07-20T00:28:53.965Z,938.14
2017-07-20T00:29:22.124Z,938.13
2017-07-20T00:29:50.174Z,938.16
2017-07-20T00:30:18.336Z,938.19
2017-07-20T00:30:46.614Z,938.17
2017-07-20T00:31:14.874Z,938.26
2017-07-20T00:31:43.126Z,938.25
2017-07-20T00:32:11.380Z,938.27
2017-07-20T00:32:39.599Z,938.19
2017-07-20T00:33:07.769Z,938.21
2017-07-20T00:33:36.045Z,938.26
2017-07-20T00:34:04.110Z,938.3
2017-07-20T00:34:32.229Z,938.35
2017-07-20T00:35:00.358Z,938.35
2017-07-20T00:35:28.608Z,938.37
2017-07-20T00:35:56.884Z,938.37
2017-07-20T00:36:25.004Z,938.43
2017-07-20T00:36:53.202Z,938.43
2017-07-20T00:37:21.556Z,938.41
2017-07-20T00:37:49.707Z,938.42
2017-07-20T00:38:17.945Z,938.4
2017-07-20T00:38:46.037Z,938.38
2017-07-20T00:39:14.024Z,938.36
2017-07-20T00:39:42.138Z,938.38
2017-07-20T00:40:10.397Z,938.35
2017-07-20T00:40:38.494Z,938.39
2017-07-20T00:41:06.700Z,938.36
2017-07-20T00:41:34.802Z,938.34
2017-07-20T00:42:03.128Z,938.35
2017-07-20T00:42:31.309Z,938.36
2017-07-20T00:42:59.527Z,938.37
2017-07-20T00:43:27.678Z,938.35
2017-07-20T00:43:55.930Z,938.35
2017-07-20T00:44:24.071Z,938.35
2017-07-20T00:44:52.232Z,938.38
2017-07-20T00:45:20.332Z,938.41
2017-07-20T00:45:48.426Z,938.4
2017-07-20T00:46:16.563Z,938.43
2017-07-20T00:46:44.761Z,938.38
2017-07-20T00:47:12.889Z,938.39
2017-07-20T00:47:41.043Z,938.38
2017-07-20T00:48:09.334Z,938.37
2017-07-20T00:48:37.560Z,938.38
2017-07-20T00:49:05.716Z,938.34
2017-07-20T00:49:33.950Z,938.33
2017-07-20T00:50:02.146Z,938.27
2017-07-20T00:50:30.330Z,938.29
2017-07-20T00:50:58.485Z,938.29
2017-07-20T00:51:26.701Z,938.27
2017-07-20T00:51:54.956Z,938.33
2017-07-20T00:52:23.277Z,938.29
2017-07-20T00:52:51.411Z,938.28
2017-07-20T00:53:19.641Z,938.26
2017-07-20T00:53:47.888Z,938.31
2017-07-20T00:54:16.138Z,938.35
2017-07-20T00:54:44.390Z,938.37
2017-07-20T00:55:12.629Z,938.27
2017-07-20T00:55:40.694Z,938.3
2017-07-20T00:56:08.953Z,938.26
2017-07-20T00:56:37.000Z,938.27
2017-07-20T00:57:05.391Z,938.25
2017-07-20T00:57:33.617Z,938.2
2017-07-20T00:58:01.808Z,938.24
2017-07-20T00:58:30.062Z,938.24
2017-07-20T00:58:58.262Z,938.23
2017-07-20T00:59:26.457Z,938.23
2017-07-20T00:59:54.661Z,938.2
2017-07-20T01:00:22.922Z,938.17
2017-07-20T01:00:51.099Z,938.24
2017-07-20T01:01:19.341Z,938.22
2017-07-20T01:01:47.502Z,938.24
2017-07-20T01:02:15.734Z,938.23
2017-07-20T01:02:43.836Z,938.19
2017-07-20T01:03:12.100Z,938.19
2017-07-20T01:03:40.367Z,938.21
2017-07-20T01:04:08.642Z,938.22
2017-07-20T01:04:36.882Z,938.18
2017-07-20T01:05:05.088Z,938.11
2017-07-20T01:05:33.321Z,938.17
2017-07-20T01:06:01.510Z,938.17
2017-07-20T01:06:29.724Z,938.17
2017-07-20T01:06:57.935Z,938.17
2017-07-20T01:07:26.295Z,938.2
2017-07-20T01:07:54.477Z,938.23
2017-07-20T01:08:22.647Z,938.18
2017-07-20T01:08:50.726Z,938.24
2017-07-20T01:09:18.735Z,938.25
2017-07-20T01:09:46.706Z,938.21
2017-07-20T01:10:14.938Z,938.2
2017-07-20T01:10:43.159Z,938.19
2017-07-20T01:11:11.276Z,938.19
2017-07-20T01:11:39.317Z,938.21
2017-07-20T01:12:07.403Z,938.2
2017-07-20T01:12:35.640Z,938.23
2017-07-20T01:13:03.756Z,938.21
2017-07-20T01:13:31.946Z,938.23
2017-07-20T01:14:00.062Z,938.19
2017-07-20T01:14:28.169Z,938.18
2017-07-20T01:14:56.175Z,938.15
2017-07-20T01:15:24.360Z,938.22
2017-07-20T01:15:52.456Z,938.18
2017-07-20T01:16:20.582Z,938.21
2017-07-20T01:16:48.787Z,938.2
2017-07-20T01:17:17.010Z,938.24
2017-07-20T01:17:45.237Z,938.25
2017-07-20T01:18:13.328Z,938.24
2017-07-20T01:18:41.486Z,938.24
2017-07-20T01:19:09.634Z,938.27
2017-07-20T01:19:37.714Z,938.29
2017-07-20T01:20:05.827Z,938.27
2017-07-20T01:20:34.014Z,938.31
2017-07-20T01:21:02.229Z,938.29
2017-07-20T01:21:30.332Z,938.24
2017-07-20T01:21:58.435Z,938.25
2017-07-20T01:22:26.698Z,938.27
2017-07-20T01:22:54.904Z,938.28
2017-07-20T01:23:23.025Z,938.26
2017-07-20T01:23:51.211Z,938.3
2017-07-20T01:24:19.426Z,938.28
2017-07-20T01:24:47.523Z,938.26
2017-07-20T01:25:15.628Z,938.28
2017-07-20T01:25:43.754Z,938.32
2017-07-20T01:26:11.965Z,938.31
2017-07-20T01:26:40.096Z,938.31
2017-07-20T01:27:08.225Z,938.28
2017-07-20T01:27:36.478Z,938.28
2017-07-20T01:28:04.695Z,938.27
2017-07-20T01:28:32.904Z,938.27
2017-07-20T01:29:01.030Z,938.31
2017-07-20T01:29:29.227Z,938.25
2017-07-20T01:29:57.435Z,938.28
2017-07-20T01:30:25.478Z,938.25
2017-07-20T01:30:53.614Z,938.25
2017-07-20T01:31:21.816Z,938.26
2017-07-20T01:31:50.037Z,938.21
2017-07-20T01:32:18.230Z,938.21
2017-07-20T01:32:46.464Z,938.24
2017-07-20T01:33:14.669Z,938.27
2017-07-20T01:33:42.830Z,938.22
2017-07-20T01:34:10.947Z,938.2
2017-07-20T01:34:39.130Z,938.26
2017-07-20T01:35:07.331Z,938.22
2017-07-20T01:35:35.470Z,938.26
2017-07-20T01:36:03.654Z,938.21
2017-07-20T01:36:31.750Z,938.26
2017-07-20T01:36:59.926Z,938.2
2017-07-20T01:37:28.161Z,938.22
2017-07-20T01:37:56.370Z,938.23
2017-07-20T01:38:24.441Z,938.19
2017-07-20T01:38:52.643Z,938.25
2017-07-20T01:39:20.764Z,938.23
2017-07-20T01:39:48.970Z,938.19
2017-07-20T01:40:17.167Z,938.18
2017-07-20T01:40:45.439Z,938.23
2017-07-20T01:41:13.541Z,938.22
2017-07-20T01:41:41.534Z,938.2
2017-07-20T01:42:09.760Z,938.23
2017-07-20T01:42:38.075Z,938.2
2017-07-20T01:43:06.313Z,938.2
2017-07-20T01:43:34.315Z,938.23
2017-07-20T01:44:02.518Z,938.23
2017-07-20T01:44:30.636Z,938.23
2017-07-20T01:44:58.805Z,938.24
2017-07-20T01:45:26.992Z,938.19
2017-07-20T01:45:55.201Z,938.18
2017-07-20T01:46:23.337Z,938.18
2017-07-20T01:46:51.534Z,938.21
2017-07-20T01:47:19.636Z,938.23
2017-07-20T01:47:47.952Z,938.19
2017-07-20T01:48:16.071Z,938.18
2017-07-20T01:48:44.211Z,938.18
2017-07-20T01:49:12.346Z,938.16
2017-07-20T01:49:40.388Z,938.17
2017-07-20T01:50:08.637Z,938.14
2017-07-20T01:50:36.721Z,938.18
2017-07-20T01:51:04.907Z,938.21
2017-07-20T01:51:32.993Z,938.18
2017-07-20T01:52:01.124Z,938.14
2017-07-20T01:52:29.359Z,938.19
2017-07-20T01:52:57.590Z,938.15
2017-07-20T01:53:25.691Z,938.14
2017-07-20T01:53:53.840Z,938.14
2017-07-20T01:54:21.949Z,938.14
2017-07-20T01:54:50.074Z,938.14
2017-07-20T01:55:18.280Z,938.17
2017-07-20T01:55:46.528Z,938.12
2017-07-20T01:56:14.731Z,938.18
2017-07-20T01:56:42.911Z,938.19
2017-07-20T01:57:11.077Z,938.21
2017-07-20T01:57:39.236Z,938.16
2017-07-20T01:58:07.526Z,938.18
2017-07-20T01:58:35.630Z,938.17
2017-07-20T01:59:03.721Z,938.14
2017-07-20T01:59:31.921Z,938.17
2017-07-20T02:00:00.131Z,938.14
2017-07-20T02:00:28.235Z,938.11
2017-07-20T02:00:56.315Z,938.15
2017-07-20T02:01:24.527Z,938.13
2017-07-20T02:01:52.765Z,938.09
2017-07-20T02:02:20.833Z,938.09
2017-07-20T02:02:49.107Z,938.05
2017-07-20T02:03:17.209Z,938.04
2017-07-20T02:03:45.317Z,938.12
2017-07-20T02:04:13.497Z,938.03
2017-07-20T02:04:41.779Z,938.06
2017-07-20T02:05:09.946Z,938.04
2017-07-20T02:05:38.126Z,938.07
2017-07-20T02:06:06.241Z,938.06
2017-07-20T02:06:34.327Z,938.06
2017-07-20T02:07:02.412Z,938.11
2017-07-20T02:07:30.575Z,938.04
2017-07-20T02:07:58.904Z,938.04
2017-07-20T02:08:27.031Z,938.05
2017-07-20T02:08:55.065Z,938.08
2017-07-20T02:09:23.252Z,938.06
2017-07-20T02:09:51.442Z,938.09
2017-07-20T02:10:19.434Z,938.06
2017-07-20T02:10:47.646Z,938.05
2017-07-20T02:11:15.803Z,938.07
2017-07-20T02:11:43.824Z,938.05
2017-07-20T02:12:11.894Z,938.08
2017-07-20T02:12:40.089Z,938.06
2017-07-20T02:13:08.295Z,938.08
2017-07-20T02:13:36.382Z,938.04
2017-07-20T02:14:04.573Z,938.04
2017-07-20T02:14:32.760Z,938.04
2017-07-20T02:15:00.963Z,938.08
2017-07-20T02:15:29.013Z,938.08
2017-07-20T02:15:57.229Z,938.06
2017-07-20T02:16:25.354Z,938.06
2017-07-20T02:16:53.532Z,938.02
2017-07-20T02:17:21.704Z,938.04
2017-07-20T02:17:49.711Z,938.02
2017-07-20T02:18:18.022Z,938.06
2017-07-20T02:18:46.019Z,938.03
2017-07-20T02:19:14.237Z,938.03
2017-07-20T02:19:42.372Z,938.02
2017-07-20T02:20:10.602Z,938.04
2017-07-20T02:20:38.772Z,937.99
2017-07-20T02:21:06.942Z,938.05
2017-07-20T02:21:35.144Z,938.02
2017-07-20T02:22:03.331Z,938
2017-07-20T02:22:31.491Z,938.07
2017-07-20T02:22:59.601Z,938.05
2017-07-20T02:23:27.739Z,938.06
2017-07-20T02:23:55.877Z,938.04
2017-07-20T02:24:23.958Z,938.06
2017-07-20T02:24:52.076Z,938.06
2017-07-20T02:25:20.180Z,938.08
2017-07-20T02:25:48.375Z,938.07
2017-07-20T02:26:16.538Z,938.07
2017-07-20T02:26:44.564Z,938.07
2017-07-20T02:27:12.666Z,938.11
2017-07-20T02:27:40.855Z,938.08
2017-07-20T02:28:09.131Z,938.08
2017-07-20T02:28:37.356Z,938.04
2017-07-20T02:29:05.478Z,938.08
2017-07-20T02:29:33.675Z,938.01
2017-07-20T02:30:01.707Z,938.06
2017-07-20T02:30:29.895Z,938.05
2017-07-20T02:30:58.096Z,938.06
2017-07-20T02:31:26.335Z,938.07
2017-07-20T02:31:54.555Z,938.06
2017-07-20T02:32:22.722Z,938.04
2017-07-20T02:32:50.843Z,938.01
2017-07-20T02:33:19.105Z,938.04
2017-07-20T02:33:47.321Z,938.06
2017-07-20T02:34:15.543Z,938.03
2017-07-20T02:34:43.660Z,938.04
2017-07-20T02:35:11.817Z,937.97
2017-07-20T02:35:39.940Z,938
2017-07-20T02:36:08.077Z,938.03
2017-07-20T02:36:36.236Z,938
2017-07-20T02:37:04.268Z,937.99
2017-07-20T02:37:32.481Z,938
2017-07-20T02:38:00.648Z,938.04
2017-07-20T02:38:28.980Z,937.99
2017-07-20T02:38:57.097Z,938.01
2017-07-20T02:39:25.290Z,937.99
2017-07-20T02:39:53.379Z,938.02
2017-07-20T02:40:21.563Z,938
2017-07-20T02:40:49.579Z,938
2017-07-20T02:41:17.837Z,938.02
2017-07-20T02:41:45.890Z,938
2017-07-20T02:42:13.986Z,938
2017-07-20T02:42:42.237Z,938.02
2017-07-20T02:43:10.335Z,938.08
2017-07-20T02:43:38.635Z,937.99
2017-07-20T02:44:06.827Z,937.97
2017-07-20T02:44:36.245Z,938.04
2017-07-20T02:45:04.723Z,938.02
2017-07-20T02:45:32.918Z,937.97
2017-07-20T02:46:01.036Z,937.97
2017-07-20T02:46:29.100Z,938.03
2017-07-20T02:46:57.309Z,937.99
2017-07-20T02:47:25.402Z,938.04
2017-07-20T02:47:53.614Z,937.99
2017-07-20T02:48:21.725Z,938.01
2017-07-20T02:48:49.827Z,938
2017-07-20T02:49:18.011Z,938.01
2017-07-20T02:49:46.206Z,938
2017-07-20T02:50:14.362Z,938
2017-07-20T02:50:42.492Z,938.01
2017-07-20T02:51:10.727Z,937.99
2017-07-20T02:51:38.970Z,938.02
2017-07-20T02:52:07.187Z,938.01
2017-07-20T02:52:35.258Z,938
2017-07-20T02:53:03.390Z,938.01
2017-07-20T02:53:31.682Z,938.01
2017-07-20T02:53:59.779Z,938
2017-07-20T02:54:28.354Z,938.01
2017-07-20T02:54:58.378Z,937.99
2017-07-20T02:55:27.149Z,937.98
2017-07-20T02:55:55.862Z,937.96
2017-07-20T02:56:24.118Z,937.94
2017-07-20T02:56:52.364Z,938
2017-07-20T02:57:20.308Z,937.98
2017-07-20T02:57:48.849Z,937.94
2017-07-20T02:58:16.985Z,937.95
2017-07-20T02:58:45.201Z,937.96
2017-07-20T02:59:13.445Z,937.98
2017-07-20T02:59:41.452Z,937.96
2017-07-20T03:00:09.728Z,937.98
2017-07-20T03:00:37.855Z,937.99
2017-07-20T03:01:06.375Z,938
2017-07-20T03:01:34.489Z,937.99
2017-07-20T03:02:02.637Z,937.95
2017-07-20T03:02:30.738Z,937.94
2017-07-20T03:02:58.734Z,937.99
2017-07-20T03:03:28.724Z,938
2017-07-20T03:03:56.726Z,937.99
2017-07-20T03:04:24.977Z,937.97
2017-07-20T03:04:53.145Z,937.98
2017-07-20T03:05:21.356Z,937.96
2017-07-20T03:05:49.471Z,937.95
2017-07-20T03:06:17.414Z,937.94
2017-07-20T03:06:45.540Z,937.96
2017-07-20T03:07:13.618Z,937.92
2017-07-20T03:07:41.819Z,937.97
2017-07-20T03:08:10.004Z,937.99
2017-07-20T03:08:38.134Z,937.93
2017-07-20T03:09:06.301Z,937.94
2017-07-20T03:09:34.546Z,937.96
2017-07-20T03:10:02.750Z,937.88
2017-07-20T03:10:30.766Z,937.91
2017-07-20T03:10:58.735Z,937.9
2017-07-20T03:11:26.840Z,937.9
2017-07-20T03:11:54.838Z,937.94
2017-07-20T03:12:23.021Z,937.88
2017-07-20T03:12:51.139Z,937.9
2017-07-20T03:13:19.304Z,937.88
2017-07-20T03:13:47.588Z,937.89
2017-07-20T03:14:15.786Z,937.89
2017-07-20T03:14:43.849Z,937.89
2017-07-20T03:15:11.828Z,937.92
2017-07-20T03:15:40.030Z,937.87
2017-07-20T03:16:08.047Z,937.89
2017-07-20T03:16:36.247Z,937.88
2017-07-20T03:17:04.342Z,937.9
2017-07-20T03:17:32.469Z,937.88
2017-07-20T03:18:00.638Z,937.89
2017-07-20T03:18:28.598Z,937.9
2017-07-20T03:18:56.731Z,937.88
2017-07-20T03:19:24.803Z,937.85
2017-07-20T03:19:52.883Z,937.9
2017-07-20T03:20:20.920Z,937.85
2017-07-20T03:20:49.102Z,937.88
2017-07-20T03:21:17.204Z,937.89
2017-07-20T03:21:45.396Z,937.89
2017-07-20T03:22:13.387Z,937.87
2017-07-20T03:22:41.473Z,937.89
2017-07-20T03:23:09.682Z,937.83
2017-07-20T03:23:37.561Z,937.84
2017-07-20T03:24:05.932Z,937.83
2017-07-20T03:24:33.916Z,937.81
2017-07-20T03:25:01.926Z,937.82
2017-07-20T03:25:30.041Z,937.78
2017-07-20T03:25:58.230Z,937.79
2017-07-20T03:26:26.454Z,937.76
2017-07-20T03:26:54.686Z,937.76
2017-07-20T03:27:22.800Z,937.79
2017-07-20T03:27:50.899Z,937.79
2017-07-20T03:28:18.912Z,937.77
2017-07-20T03:28:46.915Z,937.76
2017-07-20T03:29:15.226Z,937.75
2017-07-20T03:29:43.417Z,937.77
2017-07-20T03:30:11.506Z,937.78
2017-07-20T03:30:39.732Z,937.73
2017-07-20T03:31:07.846Z,937.77
2017-07-20T03:31:35.989Z,937.76
2017-07-20T03:32:04.126Z,937.76
2017-07-20T03:32:32.256Z,937.78
2017-07-20T03:33:00.362Z,937.73
2017-07-20T03:33:28.533Z,937.75
2017-07-20T03:33:56.727Z,937.78
2017-07-20T03:34:24.784Z,937.8
2017-07-20T03:34:53.018Z,937.78
2017-07-20T03:35:21.102Z,937.78
2017-07-20T03:35:49.299Z,937.77
2017-07-20T03:36:17.493Z,937.77
2017-07-20T03:36:45.515Z,937.78
2017-07-20T03:37:13.556Z,937.82
2017-07-20T03:37:41.674Z,937.81
2017-07-20T03:38:09.887Z,937.8
2017-07-20T03:38:37.912Z,937.81
2017-07-20T03:39:06.071Z,937.81
2017-07-20T03:39:34.293Z,937.8
2017-07-20T03:40:02.372Z,937.78
2017-07-20T03:40:30.469Z,937.8
2017-07-20T03:40:58.687Z,937.75
2017-07-20T03:41:26.853Z,937.82
2017-07-20T03:41:54.954Z,937.82
2017-07-20T03:42:23.031Z,937.75
2017-07-20T03:42:51.134Z,937.81
2017-07-20T03:43:19.278Z,937.77
2017-07-20T03:43:47.472Z,937.76
2017-07-20T03:44:15.586Z,937.76
2017-07-20T03:44:43.784Z,937.7
2017-07-20T03:45:11.951Z,937.77
2017-07-20T03:45:40.081Z,937.74
2017-07-20T03:46:08.254Z,937.72
2017-07-20T03:46:36.369Z,937.7
2017-07-20T03:47:04.394Z,937.68
2017-07-20T03:47:32.512Z,937.67
2017-07-20T03:48:00.557Z,937.65
2017-07-20T03:48:28.486Z,937.63
2017-07-20T03:48:56.594Z,937.62
2017-07-20T03:49:25.019Z,937.61
2017-07-20T03:49:53.231Z,937.63
2017-07-20T03:50:21.382Z,937.64
2017-07-20T03:50:49.472Z,937.63
2017-07-20T03:51:17.490Z,937.59
2017-07-20T03:51:45.440Z,937.63
2017-07-20T03:52:13.560Z,937.63
2017-07-20T03:52:41.685Z,937.65
2017-07-20T03:53:09.892Z,937.66
2017-07-20T03:53:37.927Z,937.61
2017-07-20T03:54:06.154Z,937.66
2017-07-20T03:54:34.256Z,937.69
2017-07-20T03:55:02.325Z,937.67
2017-07-20T03:55:30.498Z,937.68
2017-07-20T03:55:58.604Z,937.67
2017-07-20T03:56:26.828Z,937.68
2017-07-20T03:56:54.915Z,937.68
2017-07-20T03:57:23.103Z,937.68
2017-07-20T03:57:51.279Z,937.7
2017-07-20T03:58:19.392Z,937.66
2017-07-20T03:58:47.533Z,937.65
2017-07-20T03:59:15.840Z,937.68
2017-07-20T03:59:44.062Z,937.67
2017-07-20T04:00:12.113Z,937.65
2017-07-20T04:00:40.227Z,937.66
2017-07-20T04:01:08.171Z,937.67
2017-07-20T04:01:36.361Z,937.59
2017-07-20T04:02:04.571Z,937.63
2017-07-20T04:02:32.795Z,937.66
2017-07-20T04:03:00.948Z,937.64
2017-07-20T04:03:29.141Z,937.64
2017-07-20T04:03:57.338Z,937.64
2017-07-20T04:04:25.427Z,937.62
2017-07-20T04:04:53.611Z,937.62
2017-07-20T04:05:21.687Z,937.61
2017-07-20T04:05:49.902Z,937.61
2017-07-20T04:06:18.123Z,937.59
2017-07-20T04:06:46.150Z,937.61
2017-07-20T04:07:14.172Z,937.57
2017-07-20T04:07:42.288Z,937.54
2017-07-20T04:08:10.499Z,937.56
2017-07-20T04:08:38.637Z,937.56
2017-07-20T04:09:06.765Z,937.58
2017-07-20T04:09:35.052Z,937.59
2017-07-20T04:10:02.995Z,937.6
2017-07-20T04:10:31.179Z,937.59
2017-07-20T04:10:59.381Z,937.6
2017-07-20T04:11:27.525Z,937.6
2017-07-20T04:11:55.661Z,937.63
2017-07-20T04:12:23.816Z,937.58
2017-07-20T04:12:52.031Z,937.6
2017-07-20T04:13:20.044Z,937.61
2017-07-20T04:13:48.144Z,937.64
2017-07-20T04:14:16.334Z,937.63
2017-07-20T04:14:44.545Z,937.62
2017-07-20T04:15:12.552Z,937.62
2017-07-20T04:15:40.686Z,937.63
2017-07-20T04:16:08.825Z,937.63
2017-07-20T04:16:37.085Z,937.63
2017-07-20T04:17:05.111Z,937.64
2017-07-20T04:17:33.310Z,937.6
2017-07-20T04:18:01.559Z,937.61
2017-07-20T04:18:29.782Z,937.6
2017-07-20T04:18:58.018Z,937.62
2017-07-20T04:19:26.256Z,937.66
2017-07-20T04:19:54.374Z,937.58
2017-07-20T04:20:22.496Z,937.61
2017-07-20T04:20:50.723Z,937.62
2017-07-20T04:21:18.865Z,937.6
2017-07-20T04:21:46.976Z,937.61
2017-07-20T04:22:15.087Z,937.6
2017-07-20T04:22:43.325Z,937.57
2017-07-20T04:23:11.536Z,937.6
2017-07-20T04:23:39.672Z,937.62
2017-07-20T04:24:07.841Z,937.62
2017-07-20T04:24:35.997Z,937.61
2017-07-20T04:25:04.190Z,937.59
2017-07-20T04:25:32.290Z,937.6
2017-07-20T04:26:00.406Z,937.56
2017-07-20T04:26:28.521Z,937.61
2017-07-20T04:26:56.720Z,937.66
2017-07-20T04:27:24.898Z,937.65
2017-07-20T04:27:52.907Z,937.62
2017-07-20T04:28:20.900Z,937.59
2017-07-20T04:28:49.006Z,937.58
2017-07-20T04:29:17.092Z,937.59
2017-07-20T04:29:45.332Z,937.57
2017-07-20T04:30:13.428Z,937.57
2017-07-20T04:30:41.657Z,937.58
2017-07-20T04:31:09.689Z,937.56
2017-07-20T04:31:37.921Z,937.55
2017-07-20T04:32:08.369Z,937.57
2017-07-20T04:32:36.525Z,937.54
2017-07-20T04:33:04.654Z,937.53
2017-07-20T04:33:32.672Z,937.53
2017-07-20T04:34:00.729Z,937.55
2017-07-20T04:34:28.869Z,937.58
2017-07-20T04:34:57.120Z,937.56
2017-07-20T04:35:25.301Z,937.55
2017-07-20T04:35:53.415Z,937.54
2017-07-20T04:36:21.541Z,937.55
2017-07-20T04:36:49.770Z,937.55
2017-07-20T04:37:17.776Z,937.54
2017-07-20T04:37:45.977Z,937.58
2017-07-20T04:38:14.193Z,937.55
2017-07-20T04:38:42.367Z,937.55
2017-07-20T04:39:10.373Z,937.54
2017-07-20T04:39:38.486Z,937.52
2017-07-20T04:40:06.828Z,937.53
2017-07-20T04:40:34.816Z,937.53
2017-07-20T04:41:02.832Z,937.51
2017-07-20T04:41:31.041Z,937.5
2017-07-20T04:41:59.170Z,937.49
2017-07-20T04:42:27.422Z,937.51
2017-07-20T04:42:55.614Z,937.48
2017-07-20T04:43:23.740Z,937.49
2017-07-20T04:43:53.039Z,937.52
2017-07-20T04:44:21.945Z,937.47
2017-07-20T04:44:49.853Z,937.48
2017-07-20T04:45:18.064Z,937.45
2017-07-20T04:45:46.148Z,937.45
2017-07-20T04:46:14.385Z,937.47
2017-07-20T04:46:42.538Z,937.45
2017-07-20T04:47:10.650Z,937.47
2017-07-20T04:47:38.698Z,937.43
2017-07-20T04:48:06.685Z,937.45
2017-07-20T04:48:34.800Z,937.43
2017-07-20T04:49:02.953Z,937.47
2017-07-20T04:49:31.140Z,937.44
2017-07-20T04:49:59.126Z,937.42
2017-07-20T04:50:27.273Z,937.43
2017-07-20T04:50:55.538Z,937.41
2017-07-20T04:51:23.646Z,937.4
2017-07-20T04:51:51.733Z,937.37
2017-07-20T04:52:19.841Z,937.38
2017-07-20T04:52:48.061Z,937.4
2017-07-20T04:53:16.143Z,937.4
2017-07-20T04:53:44.320Z,937.4
2017-07-20T04:54:12.536Z,937.41
2017-07-20T04:54:40.660Z,937.38
2017-07-20T04:55:08.899Z,937.37
2017-07-20T04:55:37.070Z,937.34
2017-07-20T04:56:05.269Z,937.39
2017-07-20T04:56:33.394Z,937.37
2017-07-20T04:57:01.502Z,937.36
2017-07-20T04:57:29.548Z,937.37
2017-07-20T04:57:57.805Z,937.34
2017-07-20T04:58:26.010Z,937.32
2017-07-20T04:58:54.236Z,937.32
2017-07-20T04:59:22.231Z,937.31
2017-07-20T04:59:50.344Z,937.29
2017-07-20T05:00:18.537Z,937.28
2017-07-20T05:00:46.756Z,937.31
2017-07-20T05:01:14.842Z,937.3
2017-07-20T05:01:42.834Z,937.35
2017-07-20T05:02:10.933Z,937.31
2017-07-20T05:02:38.955Z,937.35
2017-07-20T05:03:06.957Z,937.32
2017-07-20T05:03:35.159Z,937.3
2017-07-20T05:04:03.366Z,937.3
2017-07-20T05:04:31.443Z,937.27
2017-07-20T05:04:59.385Z,937.28
2017-07-20T05:05:27.525Z,937.3
2017-07-20T05:05:55.752Z,937.29
2017-07-20T05:06:23.728Z,937.29
2017-07-20T05:06:51.966Z,937.27
2017-07-20T05:07:20.120Z,937.27
2017-07-20T05:07:48.325Z,937.27
2017-07-20T05:08:16.467Z,937.26
2017-07-20T05:08:44.554Z,937.2
2017-07-20T05:09:12.661Z,937.24
2017-07-20T05:09:40.876Z,937.26
2017-07-20T05:10:09.112Z,937.28
2017-07-20T05:10:37.171Z,937.23
2017-07-20T05:11:05.192Z,937.2
2017-07-20T05:11:33.421Z,937.21
2017-07-20T05:12:01.610Z,937.21
2017-07-20T05:12:29.799Z,937.2
2017-07-20T05:12:58.021Z,937.18
2017-07-20T05:13:26.254Z,937.18
2017-07-20T05:13:54.387Z,937.18
2017-07-20T05:14:22.554Z,937.14
2017-07-20T05:14:50.740Z,937.15
2017-07-20T05:15:19.129Z,937.17
2017-07-20T05:15:47.326Z,937.17
2017-07-20T05:16:15.568Z,937.17
2017-07-20T05:16:43.792Z,937.15
2017-07-20T05:17:11.821Z,937.16
2017-07-20T05:17:39.924Z,937.16
2017-07-20T05:18:08.176Z,937.15
2017-07-20T05:18:36.359Z,937.16
2017-07-20T05:19:04.489Z,937.17
2017-07-20T05:19:32.632Z,937.16
2017-07-20T05:20:00.816Z,937.15
2017-07-20T05:20:29.026Z,937.17
2017-07-20T05:20:57.196Z,937.15
2017-07-20T05:21:25.300Z,937.17
2017-07-20T05:21:53.352Z,937.15
2017-07-20T05:22:21.462Z,937.16
2017-07-20T05:22:49.693Z,937.14
2017-07-20T05:23:17.960Z,937.13
2017-07-20T05:23:46.152Z,937.12
2017-07-20T05:24:14.312Z,937.09
2017-07-20T05:24:42.564Z,937.11
2017-07-20T05:25:10.679Z,937.07
2017-07-20T05:25:38.986Z,937.09
2017-07-20T05:26:07.197Z,937.09
2017-07-20T05:26:35.331Z,937.05
2017-07-20T05:27:03.601Z,937.06
2017-07-20T05:27:31.627Z,937.05
2017-07-20T05:27:59.812Z,937.01
2017-07-20T05:28:27.991Z,937.06
2017-07-20T05:28:56.211Z,937.03
2017-07-20T05:29:24.125Z,937.06
2017-07-20T05:29:52.205Z,937.03
2017-07-20T05:30:20.480Z,937.04
2017-07-20T05:30:48.663Z,937.06
2017-07-20T05:31:16.784Z,937.07
2017-07-20T05:31:44.988Z,937.12
2017-07-20T05:32:13.064Z,937.07
2017-07-20T05:32:41.184Z,937.07
2017-07-20T05:33:09.408Z,937.09
2017-07-20T05:33:37.649Z,937.04
2017-07-20T05:34:05.862Z,937.07
2017-07-20T05:34:34.083Z,937.06
2017-07-20T05:35:02.312Z,937.05
2017-07-20T05:35:30.757Z,937.04
2017-07-20T05:35:59.001Z,937.04
2017-07-20T05:36:27.216Z,937.02
2017-07-20T05:36:55.397Z,936.97
2017-07-20T05:37:23.483Z,937
2017-07-20T05:37:51.717Z,937
2017-07-20T05:38:19.966Z,937
2017-07-20T05:38:48.163Z,936.96
2017-07-20T05:39:16.238Z,937.01
2017-07-20T05:39:44.345Z,937.01
2017-07-20T05:40:12.383Z,936.98
2017-07-20T05:40:40.616Z,936.97
2017-07-20T05:41:08.872Z,936.99
2017-07-20T05:41:37.065Z,936.94
2017-07-20T05:42:05.076Z,936.94
2017-07-20T05:42:33.284Z,936.92
2017-07-20T05:43:01.500Z,936.95
2017-07-20T05:43:29.679Z,936.96
2017-07-20T05:43:57.853Z,936.97
2017-07-20T05:44:25.929Z,936.95
2017-07-20T05:44:53.935Z,936.96
2017-07-20T05:45:22.045Z,936.92
2017-07-20T05:45:50.298Z,936.93
2017-07-20T05:46:18.275Z,936.93
2017-07-20T05:46:46.407Z,936.91
2017-07-20T05:47:14.541Z,936.94
2017-07-20T05:47:42.788Z,936.95
2017-07-20T05:48:10.876Z,936.97
2017-07-20T05:48:39.019Z,936.92
2017-07-20T05:49:07.152Z,936.93
2017-07-20T05:49:35.357Z,936.94
2017-07-20T05:50:03.534Z,936.9
2017-07-20T05:50:31.887Z,936.91
2017-07-20T05:51:00.033Z,936.9
2017-07-20T05:51:28.070Z,936.88
2017-07-20T05:51:56.162Z,936.9
2017-07-20T05:52:24.251Z,936.89
2017-07-20T05:52:52.372Z,936.86
2017-07-20T05:53:20.555Z,936.83